sensor_id;sensor_type;location;lat;lon;timestamp;P1;durP1;ratioP1;P2;durP2;ratioP2
64826;SDS011;51265;53.972;12.286;2024-03-17T00:00:06;11.50;;;1.70;;
64826;SDS011;51265;53.972;12.286;2024-03-17T00:02:36;13.07;;;1.92;;
64826;SDS011;51265;53.972;12.286;2024-03-17T00:05:03;13.13;;;2.42;;
64826;SDS011;51265;53.972;12.286;2024-03-17T00:07:29;9.10;;;2.10;;
64826;SDS011;51265;53.972;12.286;2024-03-17T00:09:56;16.33;;;2.42;;
64826;SDS011;51265;53.972;12.286;2024-03-17T00:12:22;11.68;;;1.90;;
64826;SDS011;51265;53.972;12.286;2024-03-17T00:14:48;15.25;;;2.05;;
64826;SDS011;51265;53.972;12.286;2024-03-17T00:17:14;13.27;;;1.77;;
64826;SDS011;51265;53.972;12.286;2024-03-17T00:19:41;17.20;;;2.20;;
64826;SDS011;51265;53.972;12.286;2024-03-17T00:22:07;15.20;;;2.40;;
64826;SDS011;51265;53.972;12.286;2024-03-17T00:24:35;10.20;;;2.05;;
64826;SDS011;51265;53.972;12.286;2024-03-17T00:27:01;15.35;;;2.25;;
64826;SDS011;51265;53.972;12.286;2024-03-17T00:29:27;14.02;;;2.05;;
64826;SDS011;51265;53.972;12.286;2024-03-17T00:31:54;14.57;;;2.25;;
64826;SDS011;51265;53.972;12.286;2024-03-17T00:34:20;16.30;;;2.95;;
64826;SDS011;51265;53.972;12.286;2024-03-17T00:36:46;14.60;;;2.92;;
64826;SDS011;51265;53.972;12.286;2024-03-17T00:39:13;17.33;;;2.83;;
64826;SDS011;51265;53.972;12.286;2024-03-17T00:41:40;21.33;;;2.78;;
64826;SDS011;51265;53.972;12.286;2024-03-17T00:44:06;10.52;;;2.20;;
64826;SDS011;51265;53.972;12.286;2024-03-17T00:46:33;14.45;;;2.25;;
64826;SDS011;51265;53.972;12.286;2024-03-17T00:48:59;17.40;;;2.83;;
64826;SDS011;51265;53.972;12.286;2024-03-17T00:51:26;15.32;;;1.85;;
64826;SDS011;51265;53.972;12.286;2024-03-17T00:53:52;14.25;;;2.08;;
64826;SDS011;51265;53.972;12.286;2024-03-17T00:56:18;18.15;;;3.00;;
64826;SDS011;51265;53.972;12.286;2024-03-17T00:58:44;18.58;;;2.80;;
64826;SDS011;51265;53.972;12.286;2024-03-17T01:01:11;10.43;;;2.65;;
64826;SDS011;51265;53.972;12.286;2024-03-17T01:03:37;11.23;;;2.47;;
64826;SDS011;51265;53.972;12.286;2024-03-17T01:06:04;14.98;;;2.72;;
64826;SDS011;51265;53.972;12.286;2024-03-17T01:08:30;18.15;;;2.70;;
64826;SDS011;51265;53.972;12.286;2024-03-17T01:10:56;22.10;;;2.55;;
64826;SDS011;51265;53.972;12.286;2024-03-17T01:13:24;23.65;;;2.75;;
64826;SDS011;51265;53.972;12.286;2024-03-17T01:15:53;25.02;;;2.67;;
64826;SDS011;51265;53.972;12.286;2024-03-17T01:18:19;18.58;;;2.80;;
64826;SDS011;51265;53.972;12.286;2024-03-17T01:20:45;13.93;;;2.60;;
64826;SDS011;51265;53.972;12.286;2024-03-17T01:23:12;13.15;;;2.17;;
64826;SDS011;51265;53.972;12.286;2024-03-17T01:25:39;17.88;;;2.58;;
64826;SDS011;51265;53.972;12.286;2024-03-17T01:28:06;14.07;;;2.30;;
64826;SDS011;51265;53.972;12.286;2024-03-17T01:30:32;17.95;;;2.55;;
64826;SDS011;51265;53.972;12.286;2024-03-17T01:33:00;20.33;;;2.83;;
64826;SDS011;51265;53.972;12.286;2024-03-17T01:35:27;15.10;;;2.03;;
64826;SDS011;51265;53.972;12.286;2024-03-17T01:37:53;16.45;;;2.33;;
64826;SDS011;51265;53.972;12.286;2024-03-17T01:40:19;15.93;;;2.90;;
64826;SDS011;51265;53.972;12.286;2024-03-17T01:42:47;31.88;;;2.72;;
64826;SDS011;51265;53.972;12.286;2024-03-17T01:47:59;13.23;;;2.08;;
64826;SDS011;51265;53.972;12.286;2024-03-17T01:50:34;17.92;;;2.55;;
64826;SDS011;51265;53.972;12.286;2024-03-17T01:53:02;11.52;;;1.70;;
64826;SDS011;51265;53.972;12.286;2024-03-17T01:55:32;14.30;;;2.28;;
64826;SDS011;51265;53.972;12.286;2024-03-17T01:58:00;9.20;;;1.40;;
64826;SDS011;51265;53.972;12.286;2024-03-17T02:00:27;11.30;;;1.63;;
64826;SDS011;51265;53.972;12.286;2024-03-17T02:02:55;13.57;;;1.88;;
64826;SDS011;51265;53.972;12.286;2024-03-17T02:05:21;10.85;;;1.48;;
64826;SDS011;51265;53.972;12.286;2024-03-17T02:07:47;10.13;;;1.70;;
64826;SDS011;51265;53.972;12.286;2024-03-17T02:10:14;13.95;;;1.65;;
64826;SDS011;51265;53.972;12.286;2024-03-17T02:12:40;8.75;;;1.60;;
64826;SDS011;51265;53.972;12.286;2024-03-17T02:15:07;13.63;;;1.75;;
64826;SDS011;51265;53.972;12.286;2024-03-17T02:17:33;8.40;;;1.20;;
64826;SDS011;51265;53.972;12.286;2024-03-17T02:20:00;12.52;;;1.75;;
64826;SDS011;51265;53.972;12.286;2024-03-17T02:22:26;9.75;;;1.42;;
64826;SDS011;51265;53.972;12.286;2024-03-17T02:24:54;9.95;;;1.63;;
64826;SDS011;51265;53.972;12.286;2024-03-17T02:27:20;8.45;;;1.33;;
64826;SDS011;51265;53.972;12.286;2024-03-17T02:29:46;9.18;;;1.35;;
64826;SDS011;51265;53.972;12.286;2024-03-17T02:32:12;7.50;;;1.40;;
64826;SDS011;51265;53.972;12.286;2024-03-17T02:34:38;5.72;;;1.00;;
64826;SDS011;51265;53.972;12.286;2024-03-17T02:37:05;6.20;;;1.35;;
64826;SDS011;51265;53.972;12.286;2024-03-17T02:39:33;9.75;;;1.15;;
64826;SDS011;51265;53.972;12.286;2024-03-17T02:42:07;9.43;;;1.17;;
64826;SDS011;51265;53.972;12.286;2024-03-17T02:44:37;10.20;;;1.73;;
64826;SDS011;51265;53.972;12.286;2024-03-17T02:47:04;9.35;;;1.15;;
64826;SDS011;51265;53.972;12.286;2024-03-17T02:49:31;6.43;;;0.95;;
64826;SDS011;51265;53.972;12.286;2024-03-17T02:52:03;6.07;;;0.95;;
64826;SDS011;51265;53.972;12.286;2024-03-17T02:54:33;6.20;;;1.40;;
64826;SDS011;51265;53.972;12.286;2024-03-17T02:57:01;10.77;;;1.00;;
64826;SDS011;51265;53.972;12.286;2024-03-17T02:59:32;6.03;;;0.80;;
64826;SDS011;51265;53.972;12.286;2024-03-17T03:01:59;10.98;;;0.90;;
64826;SDS011;51265;53.972;12.286;2024-03-17T03:04:26;4.97;;;0.90;;
64826;SDS011;51265;53.972;12.286;2024-03-17T03:06:53;2.20;;;0.80;;
64826;SDS011;51265;53.972;12.286;2024-03-17T03:09:19;8.48;;;1.67;;
64826;SDS011;51265;53.972;12.286;2024-03-17T03:12:00;8.57;;;1.65;;
64826;SDS011;51265;53.972;12.286;2024-03-17T03:14:28;7.25;;;1.17;;
64826;SDS011;51265;53.972;12.286;2024-03-17T03:16:55;4.70;;;1.00;;
64826;SDS011;51265;53.972;12.286;2024-03-17T03:19:21;6.15;;;0.90;;
64826;SDS011;51265;53.972;12.286;2024-03-17T03:21:47;5.15;;;1.30;;
64826;SDS011;51265;53.972;12.286;2024-03-17T03:24:14;5.63;;;1.02;;
64826;SDS011;51265;53.972;12.286;2024-03-17T03:26:41;10.55;;;1.00;;
64826;SDS011;51265;53.972;12.286;2024-03-17T03:29:07;4.05;;;0.70;;
64826;SDS011;51265;53.972;12.286;2024-03-17T03:31:33;3.08;;;0.50;;
64826;SDS011;51265;53.972;12.286;2024-03-17T03:33:59;5.32;;;1.08;;
64826;SDS011;51265;53.972;12.286;2024-03-17T03:36:29;6.43;;;0.63;;
64826;SDS011;51265;53.972;12.286;2024-03-17T03:38:55;5.65;;;0.63;;
64826;SDS011;51265;53.972;12.286;2024-03-17T03:41:22;2.58;;;0.40;;
64826;SDS011;51265;53.972;12.286;2024-03-17T03:43:49;2.78;;;0.55;;
64826;SDS011;51265;53.972;12.286;2024-03-17T03:46:15;2.63;;;0.50;;
64826;SDS011;51265;53.972;12.286;2024-03-17T03:48:41;8.35;;;0.88;;
64826;SDS011;51265;53.972;12.286;2024-03-17T03:51:08;3.03;;;0.43;;
64826;SDS011;51265;53.972;12.286;2024-03-17T03:53:36;4.72;;;0.70;;
64826;SDS011;51265;53.972;12.286;2024-03-17T03:56:03;3.85;;;0.80;;
64826;SDS011;51265;53.972;12.286;2024-03-17T03:58:36;3.53;;;0.55;;
64826;SDS011;51265;53.972;12.286;2024-03-17T04:01:04;7.03;;;0.65;;
64826;SDS011;51265;53.972;12.286;2024-03-17T04:03:32;4.80;;;0.75;;
64826;SDS011;51265;53.972;12.286;2024-03-17T04:06:06;5.80;;;0.95;;
64826;SDS011;51265;53.972;12.286;2024-03-17T04:08:34;4.28;;;0.45;;
64826;SDS011;51265;53.972;12.286;2024-03-17T04:11:01;3.70;;;0.50;;
64826;SDS011;51265;53.972;12.286;2024-03-17T04:13:28;6.10;;;0.85;;
64826;SDS011;51265;53.972;12.286;2024-03-17T04:15:59;5.47;;;0.57;;
64826;SDS011;51265;53.972;12.286;2024-03-17T04:18:27;3.03;;;0.95;;
64826;SDS011;51265;53.972;12.286;2024-03-17T04:20:56;9.48;;;0.70;;
64826;SDS011;51265;53.972;12.286;2024-03-17T04:23:27;2.40;;;0.52;;
64826;SDS011;51265;53.972;12.286;2024-03-17T04:25:53;5.55;;;0.90;;
64826;SDS011;51265;53.972;12.286;2024-03-17T04:28:19;8.82;;;0.70;;
64826;SDS011;51265;53.972;12.286;2024-03-17T04:30:45;7.35;;;0.70;;
64826;SDS011;51265;53.972;12.286;2024-03-17T04:33:12;6.07;;;0.90;;
64826;SDS011;51265;53.972;12.286;2024-03-17T04:35:39;2.63;;;0.60;;
64826;SDS011;51265;53.972;12.286;2024-03-17T04:38:05;7.00;;;0.80;;
64826;SDS011;51265;53.972;12.286;2024-03-17T04:40:33;3.85;;;0.80;;
64826;SDS011;51265;53.972;12.286;2024-03-17T04:43:00;3.58;;;0.80;;
64826;SDS011;51265;53.972;12.286;2024-03-17T04:45:26;5.05;;;1.02;;
64826;SDS011;51265;53.972;12.286;2024-03-17T04:47:52;5.60;;;1.27;;
64826;SDS011;51265;53.972;12.286;2024-03-17T04:50:18;2.20;;;0.70;;
64826;SDS011;51265;53.972;12.286;2024-03-17T04:52:45;7.40;;;1.25;;
64826;SDS011;51265;53.972;12.286;2024-03-17T04:55:11;4.03;;;0.90;;
64826;SDS011;51265;53.972;12.286;2024-03-17T04:57:37;8.18;;;1.08;;
64826;SDS011;51265;53.972;12.286;2024-03-17T05:00:03;7.03;;;0.77;;
64826;SDS011;51265;53.972;12.286;2024-03-17T05:02:33;2.60;;;0.68;;
64826;SDS011;51265;53.972;12.286;2024-03-17T05:04:59;6.95;;;0.95;;
64826;SDS011;51265;53.972;12.286;2024-03-17T05:07:25;4.07;;;0.70;;
64826;SDS011;51265;53.972;12.286;2024-03-17T05:09:51;1.80;;;0.63;;
64826;SDS011;51265;53.972;12.286;2024-03-17T05:12:17;8.27;;;0.98;;
64826;SDS011;51265;53.972;12.286;2024-03-17T05:14:43;6.38;;;0.80;;
64826;SDS011;51265;53.972;12.286;2024-03-17T05:17:10;9.98;;;1.02;;
64826;SDS011;51265;53.972;12.286;2024-03-17T05:19:36;4.72;;;0.80;;
64826;SDS011;51265;53.972;12.286;2024-03-17T05:22:02;3.75;;;0.73;;
64826;SDS011;51265;53.972;12.286;2024-03-17T05:24:28;6.25;;;0.82;;
64826;SDS011;51265;53.972;12.286;2024-03-17T05:26:54;7.18;;;1.42;;
64826;SDS011;51265;53.972;12.286;2024-03-17T05:29:20;7.30;;;1.17;;
64826;SDS011;51265;53.972;12.286;2024-03-17T05:31:48;6.22;;;1.17;;
64826;SDS011;51265;53.972;12.286;2024-03-17T05:34:17;3.40;;;0.70;;
64826;SDS011;51265;53.972;12.286;2024-03-17T05:36:43;5.43;;;1.05;;
64826;SDS011;51265;53.972;12.286;2024-03-17T05:39:10;7.63;;;1.27;;
64826;SDS011;51265;53.972;12.286;2024-03-17T05:41:36;8.32;;;1.00;;
64826;SDS011;51265;53.972;12.286;2024-03-17T05:44:02;3.80;;;0.80;;
64826;SDS011;51265;53.972;12.286;2024-03-17T05:46:29;6.20;;;1.00;;
64826;SDS011;51265;53.972;12.286;2024-03-17T05:48:55;5.07;;;0.70;;
64826;SDS011;51265;53.972;12.286;2024-03-17T05:51:21;2.22;;;0.52;;
64826;SDS011;51265;53.972;12.286;2024-03-17T05:53:48;7.97;;;0.93;;
64826;SDS011;51265;53.972;12.286;2024-03-17T05:56:14;3.13;;;0.90;;
64826;SDS011;51265;53.972;12.286;2024-03-17T05:58:42;2.47;;;0.68;;
64826;SDS011;51265;53.972;12.286;2024-03-17T06:01:08;4.00;;;0.77;;
64826;SDS011;51265;53.972;12.286;2024-03-17T06:03:35;5.68;;;1.00;;
64826;SDS011;51265;53.972;12.286;2024-03-17T06:06:05;4.00;;;0.80;;
64826;SDS011;51265;53.972;12.286;2024-03-17T06:08:36;5.25;;;0.80;;
64826;SDS011;51265;53.972;12.286;2024-03-17T06:11:02;6.20;;;1.17;;
64826;SDS011;51265;53.972;12.286;2024-03-17T06:13:29;4.97;;;0.93;;
64826;SDS011;51265;53.972;12.286;2024-03-17T06:15:55;8.43;;;1.20;;
64826;SDS011;51265;53.972;12.286;2024-03-17T06:18:26;7.80;;;1.10;;
64826;SDS011;51265;53.972;12.286;2024-03-17T06:20:53;4.25;;;1.30;;
64826;SDS011;51265;53.972;12.286;2024-03-17T06:23:19;4.47;;;1.05;;
64826;SDS011;51265;53.972;12.286;2024-03-17T06:25:47;3.78;;;0.90;;
64826;SDS011;51265;53.972;12.286;2024-03-17T06:28:14;2.70;;;0.88;;
64826;SDS011;51265;53.972;12.286;2024-03-17T06:33:13;5.82;;;1.00;;
64826;SDS011;51265;53.972;12.286;2024-03-17T06:35:40;5.70;;;0.80;;
64826;SDS011;51265;53.972;12.286;2024-03-17T06:38:06;4.00;;;1.08;;
64826;SDS011;51265;53.972;12.286;2024-03-17T06:40:36;6.45;;;1.10;;
64826;SDS011;51265;53.972;12.286;2024-03-17T06:43:02;6.95;;;0.95;;
64826;SDS011;51265;53.972;12.286;2024-03-17T06:45:29;3.03;;;1.13;;
64826;SDS011;51265;53.972;12.286;2024-03-17T06:47:55;6.55;;;0.90;;
64826;SDS011;51265;53.972;12.286;2024-03-17T06:50:22;6.53;;;1.30;;
64826;SDS011;51265;53.972;12.286;2024-03-17T06:52:48;2.58;;;0.70;;
64826;SDS011;51265;53.972;12.286;2024-03-17T06:55:14;4.60;;;1.15;;
64826;SDS011;51265;53.972;12.286;2024-03-17T06:57:41;2.75;;;0.80;;
64826;SDS011;51265;53.972;12.286;2024-03-17T07:00:12;3.85;;;0.93;;
64826;SDS011;51265;53.972;12.286;2024-03-17T07:02:43;5.50;;;0.93;;
64826;SDS011;51265;53.972;12.286;2024-03-17T07:05:13;6.18;;;1.00;;
64826;SDS011;51265;53.972;12.286;2024-03-17T07:07:43;7.53;;;1.90;;
64826;SDS011;51265;53.972;12.286;2024-03-17T07:10:09;4.57;;;1.00;;
64826;SDS011;51265;53.972;12.286;2024-03-17T07:12:37;2.00;;;0.90;;
64826;SDS011;51265;53.972;12.286;2024-03-17T07:15:04;2.85;;;0.90;;
64826;SDS011;51265;53.972;12.286;2024-03-17T07:17:31;6.97;;;1.15;;
64826;SDS011;51265;53.972;12.286;2024-03-17T07:19:58;5.32;;;0.93;;
64826;SDS011;51265;53.972;12.286;2024-03-17T07:22:24;5.88;;;1.00;;
64826;SDS011;51265;53.972;12.286;2024-03-17T07:24:52;2.10;;;0.70;;
64826;SDS011;51265;53.972;12.286;2024-03-17T07:27:39;5.38;;;1.17;;
64826;SDS011;51265;53.972;12.286;2024-03-17T07:30:05;3.33;;;1.10;;
64826;SDS011;51265;53.972;12.286;2024-03-17T07:32:32;5.63;;;1.02;;
64826;SDS011;51265;53.972;12.286;2024-03-17T07:34:58;4.20;;;1.10;;
64826;SDS011;51265;53.972;12.286;2024-03-17T07:37:24;2.78;;;1.10;;
64826;SDS011;51265;53.972;12.286;2024-03-17T07:39:50;6.28;;;1.35;;
64826;SDS011;51265;53.972;12.286;2024-03-17T07:42:16;3.35;;;1.25;;
64826;SDS011;51265;53.972;12.286;2024-03-17T07:44:43;4.53;;;0.90;;
64826;SDS011;51265;53.972;12.286;2024-03-17T07:47:10;3.58;;;0.88;;
64826;SDS011;51265;53.972;12.286;2024-03-17T07:49:36;3.55;;;1.00;;
64826;SDS011;51265;53.972;12.286;2024-03-17T07:52:02;7.03;;;1.08;;
64826;SDS011;51265;53.972;12.286;2024-03-17T07:54:29;5.57;;;0.90;;
64826;SDS011;51265;53.972;12.286;2024-03-17T07:56:55;3.13;;;0.73;;
64826;SDS011;51265;53.972;12.286;2024-03-17T07:59:21;2.55;;;0.80;;
64826;SDS011;51265;53.972;12.286;2024-03-17T08:01:47;3.30;;;0.80;;
64826;SDS011;51265;53.972;12.286;2024-03-17T08:04:13;3.30;;;0.75;;
64826;SDS011;51265;53.972;12.286;2024-03-17T08:06:39;1.52;;;0.70;;
64826;SDS011;51265;53.972;12.286;2024-03-17T08:09:07;5.57;;;0.85;;
64826;SDS011;51265;53.972;12.286;2024-03-17T08:11:36;2.92;;;0.80;;
64826;SDS011;51265;53.972;12.286;2024-03-17T08:14:02;2.10;;;0.73;;
64826;SDS011;51265;53.972;12.286;2024-03-17T08:16:29;3.70;;;0.73;;
64826;SDS011;51265;53.972;12.286;2024-03-17T08:18:56;2.53;;;0.95;;
64826;SDS011;51265;53.972;12.286;2024-03-17T08:21:23;4.47;;;1.15;;
64826;SDS011;51265;53.972;12.286;2024-03-17T08:23:50;8.55;;;1.00;;
64826;SDS011;51265;53.972;12.286;2024-03-17T08:26:17;7.28;;;1.70;;
64826;SDS011;51265;53.972;12.286;2024-03-17T08:28:44;2.55;;;0.68;;
64826;SDS011;51265;53.972;12.286;2024-03-17T08:31:10;3.22;;;0.60;;
64826;SDS011;51265;53.972;12.286;2024-03-17T08:33:37;3.33;;;0.65;;
64826;SDS011;51265;53.972;12.286;2024-03-17T08:36:03;2.40;;;0.55;;
64826;SDS011;51265;53.972;12.286;2024-03-17T08:38:31;3.78;;;0.60;;
64826;SDS011;51265;53.972;12.286;2024-03-17T08:41:01;3.40;;;0.77;;
64826;SDS011;51265;53.972;12.286;2024-03-17T08:43:29;4.00;;;0.75;;
64826;SDS011;51265;53.972;12.286;2024-03-17T08:45:56;3.97;;;0.85;;
64826;SDS011;51265;53.972;12.286;2024-03-17T08:48:25;1.23;;;0.73;;
64826;SDS011;51265;53.972;12.286;2024-03-17T08:50:53;2.00;;;0.55;;
64826;SDS011;51265;53.972;12.286;2024-03-17T08:53:19;0.50;;;0.20;;
64826;SDS011;51265;53.972;12.286;2024-03-17T08:55:46;3.40;;;0.43;;
64826;SDS011;51265;53.972;12.286;2024-03-17T08:58:12;2.17;;;0.52;;
64826;SDS011;51265;53.972;12.286;2024-03-17T09:00:38;2.00;;;0.50;;
64826;SDS011;51265;53.972;12.286;2024-03-17T09:03:07;1.55;;;0.60;;
64826;SDS011;51265;53.972;12.286;2024-03-17T09:05:41;1.60;;;0.30;;
64826;SDS011;51265;53.972;12.286;2024-03-17T09:08:19;3.83;;;0.32;;
64826;SDS011;51265;53.972;12.286;2024-03-17T09:10:48;3.53;;;0.55;;
64826;SDS011;51265;53.972;12.286;2024-03-17T09:13:16;1.05;;;0.43;;
64826;SDS011;51265;53.972;12.286;2024-03-17T09:15:56;3.53;;;0.50;;
64826;SDS011;51265;53.972;12.286;2024-03-17T09:18:26;1.98;;;0.50;;
64826;SDS011;51265;53.972;12.286;2024-03-17T09:20:59;2.42;;;0.50;;
64826;SDS011;51265;53.972;12.286;2024-03-17T09:25:57;2.08;;;0.50;;
64826;SDS011;51265;53.972;12.286;2024-03-17T09:28:25;1.45;;;0.50;;
64826;SDS011;51265;53.972;12.286;2024-03-17T09:30:51;1.73;;;0.47;;
64826;SDS011;51265;53.972;12.286;2024-03-17T09:33:21;1.75;;;0.50;;
64826;SDS011;51265;53.972;12.286;2024-03-17T09:38:22;2.05;;;0.40;;
64826;SDS011;51265;53.972;12.286;2024-03-17T09:40:49;1.33;;;0.50;;
64826;SDS011;51265;53.972;12.286;2024-03-17T09:43:19;0.60;;;0.30;;
64826;SDS011;51265;53.972;12.286;2024-03-17T09:45:46;0.80;;;0.50;;
64826;SDS011;51265;53.972;12.286;2024-03-17T09:48:14;1.60;;;0.43;;
64826;SDS011;51265;53.972;12.286;2024-03-17T09:50:50;0.50;;;0.32;;
64826;SDS011;51265;53.972;12.286;2024-03-17T09:53:25;1.20;;;0.55;;
64826;SDS011;51265;53.972;12.286;2024-03-17T09:55:54;1.45;;;0.40;;
64826;SDS011;51265;53.972;12.286;2024-03-17T09:58:23;2.10;;;0.50;;
64826;SDS011;51265;53.972;12.286;2024-03-17T10:00:50;1.67;;;0.43;;
64826;SDS011;51265;53.972;12.286;2024-03-17T10:06:09;1.25;;;0.30;;
64826;SDS011;51265;53.972;12.286;2024-03-17T10:11:15;2.17;;;0.30;;
64826;SDS011;51265;53.972;12.286;2024-03-17T10:13:46;1.20;;;0.40;;
64826;SDS011;51265;53.972;12.286;2024-03-17T10:16:24;0.65;;;0.30;;
64826;SDS011;51265;53.972;12.286;2024-03-17T10:19:11;2.28;;;0.50;;
64826;SDS011;51265;53.972;12.286;2024-03-17T10:21:42;0.80;;;0.20;;
64826;SDS011;51265;53.972;12.286;2024-03-17T10:26:46;1.23;;;0.30;;
64826;SDS011;51265;53.972;12.286;2024-03-17T10:29:30;0.75;;;0.30;;
64826;SDS011;51265;53.972;12.286;2024-03-17T10:32:02;0.55;;;0.22;;
64826;SDS011;51265;53.972;12.286;2024-03-17T10:34:30;0.98;;;0.30;;
64826;SDS011;51265;53.972;12.286;2024-03-17T10:37:10;0.52;;;0.30;;
64826;SDS011;51265;53.972;12.286;2024-03-17T10:39:40;1.30;;;0.20;;
64826;SDS011;51265;53.972;12.286;2024-03-17T10:42:08;0.80;;;0.35;;
64826;SDS011;51265;53.972;12.286;2024-03-17T10:44:40;0.63;;;0.20;;
64826;SDS011;51265;53.972;12.286;2024-03-17T10:47:17;0.88;;;0.40;;
64826;SDS011;51265;53.972;12.286;2024-03-17T10:49:49;0.68;;;0.20;;
64826;SDS011;51265;53.972;12.286;2024-03-17T10:52:17;0.73;;;0.50;;
64826;SDS011;51265;53.972;12.286;2024-03-17T10:54:48;0.43;;;0.30;;
64826;SDS011;51265;53.972;12.286;2024-03-17T11:00:00;1.05;;;0.40;;
64826;SDS011;51265;53.972;12.286;2024-03-17T11:02:31;0.77;;;0.28;;
64826;SDS011;51265;53.972;12.286;2024-03-17T11:05:20;0.90;;;0.50;;
64826;SDS011;51265;53.972;12.286;2024-03-17T11:07:56;0.73;;;0.22;;
64826;SDS011;51265;53.972;12.286;2024-03-17T11:10:32;3.05;;;0.32;;
64826;SDS011;51265;53.972;12.286;2024-03-17T11:20:36;3.15;;;0.40;;
64826;SDS011;51265;53.972;12.286;2024-03-17T11:23:05;0.82;;;0.25;;
64826;SDS011;51265;53.972;12.286;2024-03-17T11:28:04;0.77;;;0.35;;
64826;SDS011;51265;53.972;12.286;2024-03-17T11:38:58;0.50;;;0.20;;
64826;SDS011;51265;53.972;12.286;2024-03-17T11:46:50;1.92;;;0.40;;
64826;SDS011;51265;53.972;12.286;2024-03-17T11:51:58;0.63;;;0.20;;
64826;SDS011;51265;53.972;12.286;2024-03-17T11:54:26;1.80;;;0.47;;
64826;SDS011;51265;53.972;12.286;2024-03-17T11:56:59;1.60;;;0.45;;
64826;SDS011;51265;53.972;12.286;2024-03-17T11:59:27;0.60;;;0.30;;
64826;SDS011;51265;53.972;12.286;2024-03-17T12:01:53;1.17;;;0.43;;
64826;SDS011;51265;53.972;12.286;2024-03-17T12:04:20;0.85;;;0.30;;
64826;SDS011;51265;53.972;12.286;2024-03-17T12:06:49;3.17;;;0.52;;
64826;SDS011;51265;53.972;12.286;2024-03-17T12:09:23;1.77;;;0.55;;
64826;SDS011;51265;53.972;12.286;2024-03-17T12:11:50;1.67;;;0.45;;
64826;SDS011;51265;53.972;12.286;2024-03-17T12:14:28;1.73;;;0.45;;
64826;SDS011;51265;53.972;12.286;2024-03-17T12:16:55;0.63;;;0.32;;
64826;SDS011;51265;53.972;12.286;2024-03-17T12:19:25;0.50;;;0.30;;
64826;SDS011;51265;53.972;12.286;2024-03-17T12:21:52;1.05;;;0.40;;
64826;SDS011;51265;53.972;12.286;2024-03-17T12:24:21;2.17;;;0.30;;
64826;SDS011;51265;53.972;12.286;2024-03-17T12:26:49;0.68;;;0.40;;
64826;SDS011;51265;53.972;12.286;2024-03-17T12:29:26;1.58;;;0.55;;
64826;SDS011;51265;53.972;12.286;2024-03-17T12:31:54;1.00;;;0.20;;
64826;SDS011;51265;53.972;12.286;2024-03-17T12:34:21;1.92;;;0.50;;
64826;SDS011;51265;53.972;12.286;2024-03-17T12:36:50;1.35;;;0.50;;
64826;SDS011;51265;53.972;12.286;2024-03-17T12:39:23;1.55;;;0.20;;
64826;SDS011;51265;53.972;12.286;2024-03-17T12:42:09;0.30;;;0.30;;
64826;SDS011;51265;53.972;12.286;2024-03-17T12:44:37;0.52;;;0.30;;
64826;SDS011;51265;53.972;12.286;2024-03-17T12:47:14;0.63;;;0.47;;
64826;SDS011;51265;53.972;12.286;2024-03-17T12:52:37;0.63;;;0.35;;
64826;SDS011;51265;53.972;12.286;2024-03-17T12:55:04;2.88;;;0.68;;
64826;SDS011;51265;53.972;12.286;2024-03-17T13:00:56;1.02;;;0.45;;
64826;SDS011;51265;53.972;12.286;2024-03-17T13:03:24;0.52;;;0.28;;
64826;SDS011;51265;53.972;12.286;2024-03-17T13:05:51;1.15;;;0.40;;
64826;SDS011;51265;53.972;12.286;2024-03-17T13:08:17;1.88;;;0.40;;
64826;SDS011;51265;53.972;12.286;2024-03-17T13:10:44;1.38;;;0.50;;
64826;SDS011;51265;53.972;12.286;2024-03-17T13:13:12;1.50;;;0.40;;
64826;SDS011;51265;53.972;12.286;2024-03-17T13:15:41;2.17;;;0.57;;
64826;SDS011;51265;53.972;12.286;2024-03-17T13:18:08;2.63;;;0.60;;
64826;SDS011;51265;53.972;12.286;2024-03-17T13:20:35;0.43;;;0.30;;
64826;SDS011;51265;53.972;12.286;2024-03-17T13:23:01;0.40;;;0.30;;
64826;SDS011;51265;53.972;12.286;2024-03-17T13:25:28;1.08;;;0.30;;
64826;SDS011;51265;53.972;12.286;2024-03-17T13:28:00;0.98;;;0.50;;
64826;SDS011;51265;53.972;12.286;2024-03-17T13:30:26;1.13;;;0.40;;
64826;SDS011;51265;53.972;12.286;2024-03-17T13:32:54;2.15;;;0.40;;
64826;SDS011;51265;53.972;12.286;2024-03-17T13:35:25;1.75;;;0.50;;
64826;SDS011;51265;53.972;12.286;2024-03-17T13:37:53;0.88;;;0.50;;
64826;SDS011;51265;53.972;12.286;2024-03-17T13:40:24;2.08;;;0.50;;
64826;SDS011;51265;53.972;12.286;2024-03-17T13:42:50;1.58;;;0.40;;
64826;SDS011;51265;53.972;12.286;2024-03-17T13:45:18;0.35;;;0.28;;
64826;SDS011;51265;53.972;12.286;2024-03-17T13:47:47;1.42;;;0.45;;
64826;SDS011;51265;53.972;12.286;2024-03-17T13:50:15;2.35;;;0.70;;
64826;SDS011;51265;53.972;12.286;2024-03-17T13:52:43;1.08;;;0.38;;
64826;SDS011;51265;53.972;12.286;2024-03-17T13:55:13;1.08;;;0.55;;
64826;SDS011;51265;53.972;12.286;2024-03-17T13:57:42;0.40;;;0.40;;
64826;SDS011;51265;53.972;12.286;2024-03-17T14:00:09;1.85;;;0.60;;
64826;SDS011;51265;53.972;12.286;2024-03-17T14:02:39;1.50;;;0.50;;
64826;SDS011;51265;53.972;12.286;2024-03-17T14:05:05;0.57;;;0.45;;
64826;SDS011;51265;53.972;12.286;2024-03-17T14:07:33;3.05;;;0.40;;
64826;SDS011;51265;53.972;12.286;2024-03-17T14:10:00;1.02;;;0.50;;
64826;SDS011;51265;53.972;12.286;2024-03-17T14:12:26;1.40;;;0.50;;
64826;SDS011;51265;53.972;12.286;2024-03-17T14:14:52;1.00;;;0.50;;
64826;SDS011;51265;53.972;12.286;2024-03-17T14:17:19;2.40;;;0.43;;
64826;SDS011;51265;53.972;12.286;2024-03-17T14:19:45;0.93;;;0.43;;
64826;SDS011;51265;53.972;12.286;2024-03-17T14:22:11;0.65;;;0.40;;
64826;SDS011;51265;53.972;12.286;2024-03-17T14:24:37;1.02;;;0.30;;
64826;SDS011;51265;53.972;12.286;2024-03-17T14:27:03;0.77;;;0.35;;
64826;SDS011;51265;53.972;12.286;2024-03-17T14:29:30;1.50;;;0.40;;
64826;SDS011;51265;53.972;12.286;2024-03-17T14:31:57;3.05;;;0.30;;
64826;SDS011;51265;53.972;12.286;2024-03-17T14:34:23;0.90;;;0.50;;
64826;SDS011;51265;53.972;12.286;2024-03-17T14:36:49;0.93;;;0.32;;
64826;SDS011;51265;53.972;12.286;2024-03-17T14:39:15;1.67;;;0.60;;
64826;SDS011;51265;53.972;12.286;2024-03-17T14:41:41;1.10;;;0.50;;
64826;SDS011;51265;53.972;12.286;2024-03-17T14:44:08;1.73;;;0.47;;
64826;SDS011;51265;53.972;12.286;2024-03-17T14:46:34;1.27;;;0.40;;
64826;SDS011;51265;53.972;12.286;2024-03-17T14:49:00;0.55;;;0.40;;
64826;SDS011;51265;53.972;12.286;2024-03-17T14:51:27;2.85;;;0.40;;
64826;SDS011;51265;53.972;12.286;2024-03-17T14:53:53;1.05;;;0.40;;
64826;SDS011;51265;53.972;12.286;2024-03-17T14:56:19;0.95;;;0.60;;
64826;SDS011;51265;53.972;12.286;2024-03-17T14:58:46;0.80;;;0.50;;
64826;SDS011;51265;53.972;12.286;2024-03-17T15:01:13;1.17;;;0.80;;
64826;SDS011;51265;53.972;12.286;2024-03-17T15:03:39;0.68;;;0.40;;
64826;SDS011;51265;53.972;12.286;2024-03-17T15:06:09;1.35;;;0.50;;
64826;SDS011;51265;53.972;12.286;2024-03-17T15:08:37;0.57;;;0.57;;
64826;SDS011;51265;53.972;12.286;2024-03-17T15:11:03;2.72;;;0.50;;
64826;SDS011;51265;53.972;12.286;2024-03-17T15:13:30;0.70;;;0.35;;
64826;SDS011;51265;53.972;12.286;2024-03-17T15:15:56;0.20;;;0.20;;
64826;SDS011;51265;53.972;12.286;2024-03-17T15:18:22;1.10;;;0.40;;
64826;SDS011;51265;53.972;12.286;2024-03-17T15:20:52;1.05;;;0.60;;
64826;SDS011;51265;53.972;12.286;2024-03-17T15:23:19;0.57;;;0.40;;
64826;SDS011;51265;53.972;12.286;2024-03-17T15:25:45;1.20;;;0.40;;
64826;SDS011;51265;53.972;12.286;2024-03-17T15:28:12;1.10;;;0.50;;
64826;SDS011;51265;53.972;12.286;2024-03-17T15:30:38;0.60;;;0.40;;